sensor_id;sensor_type;location;lat;lon;timestamp;temperature;humidity
43862;DHT22;29510;52.140;5.034;2022-09-01T00:07:59;16.00;99.90
43862;DHT22;29510;52.140;5.034;2022-09-01T00:18:00;15.90;99.90
43862;DHT22;29510;52.140;5.034;2022-09-01T00:28:01;15.80;99.90
43862;DHT22;29510;52.140;5.034;2022-09-01T00:38:04;15.70;99.90
43862;DHT22;29510;52.140;5.034;2022-09-01T00:48:05;15.60;99.90
43862;DHT22;29510;52.140;5.034;2022-09-01T00:58:07;15.50;99.90
43862;DHT22;29510;52.140;5.034;2022-09-01T01:08:08;15.40;99.90
43862;DHT22;29510;52.140;5.034;2022-09-01T01:18:15;15.20;99.90
43862;DHT22;29510;52.140;5.034;2022-09-01T01:38:20;15.10;99.90
43862;DHT22;29510;52.140;5.034;2022-09-01T01:48:22;15.10;99.90
43862;DHT22;29510;52.140;5.034;2022-09-01T01:58:24;15.00;99.90
43862;DHT22;29510;52.140;5.034;2022-09-01T02:08:25;14.90;99.90
43862;DHT22;29510;52.140;5.034;2022-09-01T02:18:45;14.70;99.90
43862;DHT22;29510;52.140;5.034;2022-09-01T02:28:50;14.60;99.90
43862;DHT22;29510;52.140;5.034;2022-09-01T02:38:52;14.50;99.90
43862;DHT22;29510;52.140;5.034;2022-09-01T02:48:54;14.50;99.90
43862;DHT22;29510;52.140;5.034;2022-09-01T02:58:56;14.40;99.90
43862;DHT22;29510;52.140;5.034;2022-09-01T03:08:57;14.40;99.90
43862;DHT22;29510;52.140;5.034;2022-09-01T03:19:01;14.40;99.90
43862;DHT22;29510;52.140;5.034;2022-09-01T03:29:03;14.40;99.90
43862;DHT22;29510;52.140;5.034;2022-09-01T03:39:04;14.50;99.90
43862;DHT22;29510;52.140;5.034;2022-09-01T03:49:06;14.40;99.90
43862;DHT22;29510;52.140;5.034;2022-09-01T03:59:12;14.30;99.90
43862;DHT22;29510;52.140;5.034;2022-09-01T04:09:16;14.40;99.90
43862;DHT22;29510;52.140;5.034;2022-09-01T04:19:20;14.40;99.90
43862;DHT22;29510;52.140;5.034;2022-09-01T04:29:25;14.40;99.90
43862;DHT22;29510;52.140;5.034;2022-09-01T04:39:27;14.30;99.90
43862;DHT22;29510;52.140;5.034;2022-09-01T04:49:29;14.10;99.90
43862;DHT22;29510;52.140;5.034;2022-09-01T04:59:33;14.00;99.90
43862;DHT22;29510;52.140;5.034;2022-09-01T05:09:37;14.10;99.90
43862;DHT22;29510;52.140;5.034;2022-09-01T05:19:44;14.10;99.90
43862;DHT22;29510;52.140;5.034;2022-09-01T05:29:47;14.10;99.90
43862;DHT22;29510;52.140;5.034;2022-09-01T05:39:49;14.10;99.90
43862;DHT22;29510;52.140;5.034;2022-09-01T05:49:52;14.20;99.90
43862;DHT22;29510;52.140;5.034;2022-09-01T05:59:53;14.40;99.90
43862;DHT22;29510;52.140;5.034;2022-09-01T06:09:54;14.50;99.90
43862;DHT22;29510;52.140;5.034;2022-09-01T06:19:56;14.90;99.90
43862;DHT22;29510;52.140;5.034;2022-09-01T06:29:58;15.20;99.90
43862;DHT22;29510;52.140;5.034;2022-09-01T06:39:59;15.40;99.90
43862;DHT22;29510;52.140;5.034;2022-09-01T06:50:00;15.50;99.90
43862;DHT22;29510;52.140;5.034;2022-09-01T07:00:03;15.60;99.90
43862;DHT22;29510;52.140;5.034;2022-09-01T07:10:07;15.90;99.90
43862;DHT22;29510;52.140;5.034;2022-09-01T07:20:09;16.30;99.90
43862;DHT22;29510;52.140;5.034;2022-09-01T07:30:11;16.50;99.90
43862;DHT22;29510;52.140;5.034;2022-09-01T07:40:14;16.80;99.90
43862;DHT22;29510;52.140;5.034;2022-09-01T07:50:18;17.10;99.90
43862;DHT22;29510;52.140;5.034;2022-09-01T08:00:20;17.40;99.90
43862;DHT22;29510;52.140;5.034;2022-09-01T08:10:21;17.80;99.90
43862;DHT22;29510;52.140;5.034;2022-09-01T08:20:22;18.30;99.90
43862;DHT22;29510;52.140;5.034;2022-09-01T08:30:23;18.80;99.90
43862;DHT22;29510;52.140;5.034;2022-09-01T08:40:25;19.20;99.90
43862;DHT22;29510;52.140;5.034;2022-09-01T08:50:26;19.70;99.90
43862;DHT22;29510;52.140;5.034;2022-09-01T09:00:30;20.30;99.90
43862;DHT22;29510;52.140;5.034;2022-09-01T09:11:04;20.80;99.90
43862;DHT22;29510;52.140;5.034;2022-09-01T09:21:22;21.50;99.90
43862;DHT22;29510;52.140;5.034;2022-09-01T09:31:35;21.80;99.80
43862;DHT22;29510;52.140;5.034;2022-09-01T09:42:06;22.30;98.80
43862;DHT22;29510;52.140;5.034;2022-09-01T09:52:14;22.60;98.20
43862;DHT22;29510;52.140;5.034;2022-09-01T10:12:36;23.10;96.40
43862;DHT22;29510;52.140;5.034;2022-09-01T10:22:38;23.30;96.00
43862;DHT22;29510;52.140;5.034;2022-09-01T10:32:59;23.70;95.10
43862;DHT22;29510;52.140;5.034;2022-09-01T10:43:23;24.00;93.60
43862;DHT22;29510;52.140;5.034;2022-09-01T10:53:40;24.30;92.40
43862;DHT22;29510;52.140;5.034;2022-09-01T11:03:50;24.80;91.80
43862;DHT22;29510;52.140;5.034;2022-09-01T11:13:57;25.00;91.50
43862;DHT22;29510;52.140;5.034;2022-09-01T11:34:42;26.10;91.60
43862;DHT22;29510;52.140;5.034;2022-09-01T11:55:04;26.30;89.30
43862;DHT22;29510;52.140;5.034;2022-09-01T12:15:25;26.70;87.80
43862;DHT22;29510;52.140;5.034;2022-09-01T12:25:32;26.70;87.80
43862;DHT22;29510;52.140;5.034;2022-09-01T12:35:34;27.00;84.30
43862;DHT22;29510;52.140;5.034;2022-09-01T12:55:37;27.60;81.10
43862;DHT22;29510;52.140;5.034;2022-09-01T13:05:46;27.90;80.80
43862;DHT22;29510;52.140;5.034;2022-09-01T13:15:53;28.20;79.70
43862;DHT22;29510;52.140;5.034;2022-09-01T13:25:54;28.60;79.00
43862;DHT22;29510;52.140;5.034;2022-09-01T13:35:55;29.20;76.20
43862;DHT22;29510;52.140;5.034;2022-09-01T13:45:56;29.70;76.00
43862;DHT22;29510;52.140;5.034;2022-09-01T13:55:57;29.40;76.90
43862;DHT22;29510;52.140;5.034;2022-09-01T14:05:58;29.10;76.30
43862;DHT22;29510;52.140;5.034;2022-09-01T14:15:59;28.90;76.80
43862;DHT22;29510;52.140;5.034;2022-09-01T14:26:00;28.50;78.70
43862;DHT22;29510;52.140;5.034;2022-09-01T14:36:02;27.60;76.00
43862;DHT22;29510;52.140;5.034;2022-09-01T14:46:06;27.00;76.90
43862;DHT22;29510;52.140;5.034;2022-09-01T14:56:09;26.70;77.30
43862;DHT22;29510;52.140;5.034;2022-09-01T15:06:14;26.60;77.00
43862;DHT22;29510;52.140;5.034;2022-09-01T15:16:20;26.40;77.90
43862;DHT22;29510;52.140;5.034;2022-09-01T15:26:22;26.10;78.40
43862;DHT22;29510;52.140;5.034;2022-09-01T15:36:25;25.90;79.10
43862;DHT22;29510;52.140;5.034;2022-09-01T15:46:26;25.60;78.70
43862;DHT22;29510;52.140;5.034;2022-09-01T15:56:32;25.60;79.80
43862;DHT22;29510;52.140;5.034;2022-09-01T16:06:34;25.50;79.30
43862;DHT22;29510;52.140;5.034;2022-09-01T16:16:40;25.30;79.20
43862;DHT22;29510;52.140;5.034;2022-09-01T16:26:47;25.20;79.60
43862;DHT22;29510;52.140;5.034;2022-09-01T16:47:32;24.80;80.20
43862;DHT22;29510;52.140;5.034;2022-09-01T16:57:52;24.70;81.40
43862;DHT22;29510;52.140;5.034;2022-09-01T17:28:25;24.00;83.60
43862;DHT22;29510;52.140;5.034;2022-09-01T17:38:46;23.80;85.80
43862;DHT22;29510;52.140;5.034;2022-09-01T17:59:13;23.30;90.60
43862;DHT22;29510;52.140;5.034;2022-09-01T18:09:19;23.00;91.00
43862;DHT22;29510;52.140;5.034;2022-09-01T18:19:25;22.70;91.80
43862;DHT22;29510;52.140;5.034;2022-09-01T18:29:27;22.40;93.10
43862;DHT22;29510;52.140;5.034;2022-09-01T19:00:13;21.10;95.60
43862;DHT22;29510;52.140;5.034;2022-09-01T19:10:19;20.80;97.10
43862;DHT22;29510;52.140;5.034;2022-09-01T19:41:23;20.00;98.10
43862;DHT22;29510;52.140;5.034;2022-09-01T19:51:42;19.80;97.50
43862;DHT22;29510;52.140;5.034;2022-09-01T20:01:52;19.60;97.10
43862;DHT22;29510;52.140;5.034;2022-09-01T20:12:25;19.40;97.30
43862;DHT22;29510;52.140;5.034;2022-09-01T20:23:05;19.30;98.30
43862;DHT22;29510;52.140;5.034;2022-09-01T20:33:13;19.20;98.30
43862;DHT22;29510;52.140;5.034;2022-09-01T20:43:21;18.90;99.20
43862;DHT22;29510;52.140;5.034;2022-09-01T21:04:16;18.60;98.80
43862;DHT22;29510;52.140;5.034;2022-09-01T21:24:39;18.60;99.10
43862;DHT22;29510;52.140;5.034;2022-09-01T21:34:44;18.50;98.50
43862;DHT22;29510;52.140;5.034;2022-09-01T21:44:47;18.40;98.70
43862;DHT22;29510;52.140;5.034;2022-09-01T21:54:48;18.30;98.70
43862;DHT22;29510;52.140;5.034;2022-09-01T22:04:49;18.20;99.10
43862;DHT22;29510;52.140;5.034;2022-09-01T22:14:50;18.10;98.50
43862;DHT22;29510;52.140;5.034;2022-09-01T22:24:51;18.00;97.70
43862;DHT22;29510;52.140;5.034;2022-09-01T22:34:52;17.90;98.30
43862;DHT22;29510;52.140;5.034;2022-09-01T22:44:53;17.90;97.80
43862;DHT22;29510;52.140;5.034;2022-09-01T22:54:55;17.80;97.90
43862;DHT22;29510;52.140;5.034;2022-09-01T23:04:57;17.60;97.90
43862;DHT22;29510;52.140;5.034;2022-09-01T23:14:58;17.50;98.60
43862;DHT22;29510;52.140;5.034;2022-09-01T23:24:59;17.40;98.60
43862;DHT22;29510;52.140;5.034;2022-09-01T23:35:00;17.40;98.10
43862;DHT22;29510;52.140;5.034;2022-09-01T23:45:01;17.30;98.90
43862;DHT22;29510;52.140;5.034;2022-09-01T23:55:03;17.30;98.50
